sensor_id;sensor_type;location;lat;lon;timestamp;temperature;humidity
7970;DHT22;4030;52.362;9.206;2024-03-22T00:00:29;12.20;87.50
7970;DHT22;4030;52.362;9.206;2024-03-22T00:02:54;12.20;87.50
7970;DHT22;4030;52.362;9.206;2024-03-22T00:05:20;12.20;87.60
7970;DHT22;4030;52.362;9.206;2024-03-22T00:07:47;12.20;87.70
7970;DHT22;4030;52.362;9.206;2024-03-22T00:10:13;12.20;87.80
7970;DHT22;4030;52.362;9.206;2024-03-22T00:12:39;12.20;87.90
7970;DHT22;4030;52.362;9.206;2024-03-22T00:15:06;12.20;88.00
7970;DHT22;4030;52.362;9.206;2024-03-22T00:17:32;12.20;88.20
7970;DHT22;4030;52.362;9.206;2024-03-22T00:19:59;12.20;88.20
7970;DHT22;4030;52.362;9.206;2024-03-22T00:22:25;12.20;88.20
7970;DHT22;4030;52.362;9.206;2024-03-22T00:24:51;12.20;88.30
7970;DHT22;4030;52.362;9.206;2024-03-22T00:27:17;12.20;89.30
7970;DHT22;4030;52.362;9.206;2024-03-22T00:29:42;12.20;88.50
7970;DHT22;4030;52.362;9.206;2024-03-22T00:32:09;12.20;88.60
7970;DHT22;4030;52.362;9.206;2024-03-22T00:34:35;12.20;88.60
7970;DHT22;4030;52.362;9.206;2024-03-22T00:37:01;12.20;88.70
7970;DHT22;4030;52.362;9.206;2024-03-22T00:39:26;12.10;88.60
7970;DHT22;4030;52.362;9.206;2024-03-22T00:41:52;12.20;88.80
7970;DHT22;4030;52.362;9.206;2024-03-22T00:44:18;12.20;88.90
7970;DHT22;4030;52.362;9.206;2024-03-22T00:46:43;12.20;89.00
7970;DHT22;4030;52.362;9.206;2024-03-22T00:49:09;12.20;90.00
7970;DHT22;4030;52.362;9.206;2024-03-22T00:51:34;12.20;89.30
7970;DHT22;4030;52.362;9.206;2024-03-22T00:54:00;12.20;89.30
7970;DHT22;4030;52.362;9.206;2024-03-22T00:56:26;12.20;89.40
7970;DHT22;4030;52.362;9.206;2024-03-22T00:58:51;12.20;89.50
7970;DHT22;4030;52.362;9.206;2024-03-22T01:01:17;12.20;89.60
7970;DHT22;4030;52.362;9.206;2024-03-22T01:03:43;12.20;89.60
7970;DHT22;4030;52.362;9.206;2024-03-22T01:06:08;12.20;89.70
7970;DHT22;4030;52.362;9.206;2024-03-22T01:08:34;12.20;89.70
7970;DHT22;4030;52.362;9.206;2024-03-22T01:11:00;12.20;89.80
7970;DHT22;4030;52.362;9.206;2024-03-22T01:13:26;12.20;89.80
7970;DHT22;4030;52.362;9.206;2024-03-22T01:15:52;12.20;89.90
7970;DHT22;4030;52.362;9.206;2024-03-22T01:18:18;12.20;89.90
7970;DHT22;4030;52.362;9.206;2024-03-22T01:20:43;12.20;89.90
7970;DHT22;4030;52.362;9.206;2024-03-22T01:23:09;12.20;89.90
7970;DHT22;4030;52.362;9.206;2024-03-22T01:25:35;12.20;89.90
7970;DHT22;4030;52.362;9.206;2024-03-22T01:28:00;12.20;90.00
7970;DHT22;4030;52.362;9.206;2024-03-22T01:30:26;12.20;90.00
7970;DHT22;4030;52.362;9.206;2024-03-22T01:32:55;12.20;90.00
7970;DHT22;4030;52.362;9.206;2024-03-22T01:35:21;12.20;90.10
7970;DHT22;4030;52.362;9.206;2024-03-22T01:37:47;12.20;90.20
7970;DHT22;4030;52.362;9.206;2024-03-22T01:40:13;12.20;90.10
7970;DHT22;4030;52.362;9.206;2024-03-22T01:42:39;12.20;90.10
7970;DHT22;4030;52.362;9.206;2024-03-22T01:45:05;12.20;90.10
7970;DHT22;4030;52.362;9.206;2024-03-22T01:47:31;12.20;90.10
7970;DHT22;4030;52.362;9.206;2024-03-22T01:49:58;12.20;90.10
7970;DHT22;4030;52.362;9.206;2024-03-22T01:52:23;12.20;90.10
7970;DHT22;4030;52.362;9.206;2024-03-22T01:54:49;12.20;90.20
7970;DHT22;4030;52.362;9.206;2024-03-22T01:57:15;12.20;90.20
7970;DHT22;4030;52.362;9.206;2024-03-22T01:59:41;12.20;90.30
7970;DHT22;4030;52.362;9.206;2024-03-22T02:02:07;12.20;90.30
7970;DHT22;4030;52.362;9.206;2024-03-22T02:04:33;12.20;90.30
7970;DHT22;4030;52.362;9.206;2024-03-22T02:06:58;12.20;90.30
7970;DHT22;4030;52.362;9.206;2024-03-22T02:09:24;12.20;90.30
7970;DHT22;4030;52.362;9.206;2024-03-22T02:11:51;12.20;90.30
7970;DHT22;4030;52.362;9.206;2024-03-22T02:14:17;12.20;90.30
7970;DHT22;4030;52.362;9.206;2024-03-22T02:16:42;12.20;90.30
7970;DHT22;4030;52.362;9.206;2024-03-22T02:19:08;12.20;90.30
7970;DHT22;4030;52.362;9.206;2024-03-22T02:21:34;12.20;90.40
7970;DHT22;4030;52.362;9.206;2024-03-22T02:24:00;12.20;90.40
7970;DHT22;4030;52.362;9.206;2024-03-22T02:26:26;12.10;90.40
7970;DHT22;4030;52.362;9.206;2024-03-22T02:28:51;12.20;90.40
7970;DHT22;4030;52.362;9.206;2024-03-22T02:31:17;12.20;90.50
7970;DHT22;4030;52.362;9.206;2024-03-22T02:33:43;12.20;90.50
7970;DHT22;4030;52.362;9.206;2024-03-22T02:36:09;12.20;90.90
7970;DHT22;4030;52.362;9.206;2024-03-22T02:38:35;12.20;90.50
7970;DHT22;4030;52.362;9.206;2024-03-22T02:41:00;12.20;90.60
7970;DHT22;4030;52.362;9.206;2024-03-22T02:43:26;12.20;90.60
7970;DHT22;4030;52.362;9.206;2024-03-22T02:45:52;12.20;90.60
7970;DHT22;4030;52.362;9.206;2024-03-22T02:48:17;12.20;90.60
7970;DHT22;4030;52.362;9.206;2024-03-22T02:50:43;12.10;90.70
7970;DHT22;4030;52.362;9.206;2024-03-22T02:53:09;12.10;90.70
7970;DHT22;4030;52.362;9.206;2024-03-22T02:55:38;12.20;90.70
7970;DHT22;4030;52.362;9.206;2024-03-22T02:58:08;12.20;90.70
7970;DHT22;4030;52.362;9.206;2024-03-22T03:00:38;12.10;90.70
7970;DHT22;4030;52.362;9.206;2024-03-22T03:03:07;12.10;90.70
7970;DHT22;4030;52.362;9.206;2024-03-22T03:05:33;12.10;90.80
7970;DHT22;4030;52.362;9.206;2024-03-22T03:08:00;12.10;90.80
7970;DHT22;4030;52.362;9.206;2024-03-22T03:10:26;12.10;90.80
7970;DHT22;4030;52.362;9.206;2024-03-22T03:12:54;12.10;90.80
7970;DHT22;4030;52.362;9.206;2024-03-22T03:15:20;12.10;90.80
7970;DHT22;4030;52.362;9.206;2024-03-22T03:17:46;12.10;90.80
7970;DHT22;4030;52.362;9.206;2024-03-22T03:20:11;12.10;90.90
7970;DHT22;4030;52.362;9.206;2024-03-22T03:22:39;12.10;90.90
7970;DHT22;4030;52.362;9.206;2024-03-22T03:25:06;12.10;90.90
7970;DHT22;4030;52.362;9.206;2024-03-22T03:27:32;12.00;90.90
7970;DHT22;4030;52.362;9.206;2024-03-22T03:29:58;12.10;90.90
7970;DHT22;4030;52.362;9.206;2024-03-22T03:32:24;12.10;90.90
7970;DHT22;4030;52.362;9.206;2024-03-22T03:34:50;12.10;91.00
7970;DHT22;4030;52.362;9.206;2024-03-22T03:37:16;12.10;91.00
7970;DHT22;4030;52.362;9.206;2024-03-22T03:39:41;12.10;91.10
7970;DHT22;4030;52.362;9.206;2024-03-22T03:42:07;12.00;91.00
7970;DHT22;4030;52.362;9.206;2024-03-22T03:44:33;12.00;91.00
7970;DHT22;4030;52.362;9.206;2024-03-22T03:47:01;12.00;91.10
7970;DHT22;4030;52.362;9.206;2024-03-22T03:49:27;12.00;91.10
7970;DHT22;4030;52.362;9.206;2024-03-22T03:51:52;12.00;91.20
7970;DHT22;4030;52.362;9.206;2024-03-22T03:54:18;12.00;91.20
7970;DHT22;4030;52.362;9.206;2024-03-22T03:56:44;12.00;91.30
7970;DHT22;4030;52.362;9.206;2024-03-22T03:59:09;12.00;91.40
7970;DHT22;4030;52.362;9.206;2024-03-22T04:01:35;12.00;91.50
7970;DHT22;4030;52.362;9.206;2024-03-22T04:04:02;12.00;91.50
7970;DHT22;4030;52.362;9.206;2024-03-22T04:06:28;12.00;91.50
7970;DHT22;4030;52.362;9.206;2024-03-22T04:08:54;12.00;91.60
7970;DHT22;4030;52.362;9.206;2024-03-22T04:11:20;12.00;91.60
7970;DHT22;4030;52.362;9.206;2024-03-22T04:13:45;12.00;91.70
7970;DHT22;4030;52.362;9.206;2024-03-22T04:16:12;12.00;91.70
7970;DHT22;4030;52.362;9.206;2024-03-22T04:18:38;12.00;91.80
7970;DHT22;4030;52.362;9.206;2024-03-22T04:21:04;12.00;91.80
7970;DHT22;4030;52.362;9.206;2024-03-22T04:23:30;12.00;91.80
7970;DHT22;4030;52.362;9.206;2024-03-22T04:28:27;12.00;91.90
7970;DHT22;4030;52.362;9.206;2024-03-22T04:31:20;12.00;91.90
7970;DHT22;4030;52.362;9.206;2024-03-22T04:33:45;12.00;92.00
7970;DHT22;4030;52.362;9.206;2024-03-22T04:36:11;12.00;92.00
7970;DHT22;4030;52.362;9.206;2024-03-22T04:38:37;12.00;92.10
7970;DHT22;4030;52.362;9.206;2024-03-22T04:41:03;12.00;92.10
7970;DHT22;4030;52.362;9.206;2024-03-22T04:43:29;12.00;92.10
7970;DHT22;4030;52.362;9.206;2024-03-22T04:45:55;12.00;92.10
7970;DHT22;4030;52.362;9.206;2024-03-22T04:48:22;12.00;92.20
7970;DHT22;4030;52.362;9.206;2024-03-22T04:50:49;12.00;92.20
7970;DHT22;4030;52.362;9.206;2024-03-22T04:53:20;12.00;92.20
7970;DHT22;4030;52.362;9.206;2024-03-22T04:55:47;12.00;92.20
7970;DHT22;4030;52.362;9.206;2024-03-22T04:58:17;12.00;92.30
7970;DHT22;4030;52.362;9.206;2024-03-22T05:00:44;12.00;92.30
7970;DHT22;4030;52.362;9.206;2024-03-22T05:03:11;12.00;92.40
7970;DHT22;4030;52.362;9.206;2024-03-22T05:05:37;12.00;92.40
7970;DHT22;4030;52.362;9.206;2024-03-22T05:08:03;12.00;92.40
7970;DHT22;4030;52.362;9.206;2024-03-22T05:10:30;12.00;92.40
7970;DHT22;4030;52.362;9.206;2024-03-22T05:12:56;12.00;92.50
7970;DHT22;4030;52.362;9.206;2024-03-22T05:15:22;12.00;92.50
7970;DHT22;4030;52.362;9.206;2024-03-22T05:17:49;12.00;92.50
7970;DHT22;4030;52.362;9.206;2024-03-22T05:20:15;12.00;92.60
7970;DHT22;4030;52.362;9.206;2024-03-22T05:22:41;12.00;92.60
7970;DHT22;4030;52.362;9.206;2024-03-22T05:25:08;12.00;92.70
7970;DHT22;4030;52.362;9.206;2024-03-22T05:27:34;12.00;92.70
7970;DHT22;4030;52.362;9.206;2024-03-22T05:30:00;12.00;92.80
7970;DHT22;4030;52.362;9.206;2024-03-22T05:32:26;12.00;92.80
7970;DHT22;4030;52.362;9.206;2024-03-22T05:34:52;12.00;93.00
7970;DHT22;4030;52.362;9.206;2024-03-22T05:37:18;12.00;92.90
7970;DHT22;4030;52.362;9.206;2024-03-22T05:39:44;12.00;92.90
7970;DHT22;4030;52.362;9.206;2024-03-22T05:42:10;12.00;92.90
7970;DHT22;4030;52.362;9.206;2024-03-22T05:44:35;12.00;93.00
7970;DHT22;4030;52.362;9.206;2024-03-22T05:47:01;12.00;93.00
7970;DHT22;4030;52.362;9.206;2024-03-22T05:49:27;12.10;93.10
7970;DHT22;4030;52.362;9.206;2024-03-22T05:51:52;12.10;93.20
7970;DHT22;4030;52.362;9.206;2024-03-22T05:54:18;12.10;93.20
7970;DHT22;4030;52.362;9.206;2024-03-22T05:56:44;12.10;93.20
7970;DHT22;4030;52.362;9.206;2024-03-22T05:59:09;12.10;93.30
7970;DHT22;4030;52.362;9.206;2024-03-22T06:01:36;12.10;93.30
7970;DHT22;4030;52.362;9.206;2024-03-22T06:04:03;12.10;93.30
7970;DHT22;4030;52.362;9.206;2024-03-22T06:06:29;12.10;93.20
7970;DHT22;4030;52.362;9.206;2024-03-22T06:08:55;12.20;93.30
7970;DHT22;4030;52.362;9.206;2024-03-22T06:11:22;12.20;93.30
7970;DHT22;4030;52.362;9.206;2024-03-22T06:13:48;12.20;93.30
7970;DHT22;4030;52.362;9.206;2024-03-22T06:16:14;12.20;93.30
7970;DHT22;4030;52.362;9.206;2024-03-22T06:18:40;12.20;93.30
7970;DHT22;4030;52.362;9.206;2024-03-22T06:21:06;12.20;93.40
7970;DHT22;4030;52.362;9.206;2024-03-22T06:23:32;12.20;93.40
7970;DHT22;4030;52.362;9.206;2024-03-22T06:25:58;12.30;93.50
7970;DHT22;4030;52.362;9.206;2024-03-22T06:28:26;12.30;93.50
7970;DHT22;4030;52.362;9.206;2024-03-22T06:30:53;12.30;93.50
7970;DHT22;4030;52.362;9.206;2024-03-22T06:33:19;12.30;93.50
7970;DHT22;4030;52.362;9.206;2024-03-22T06:35:46;12.30;93.60
7970;DHT22;4030;52.362;9.206;2024-03-22T06:38:12;12.40;93.60
7970;DHT22;4030;52.362;9.206;2024-03-22T06:40:38;12.40;93.60
7970;DHT22;4030;52.362;9.206;2024-03-22T06:43:04;12.40;93.60
7970;DHT22;4030;52.362;9.206;2024-03-22T06:45:29;12.40;93.60
7970;DHT22;4030;52.362;9.206;2024-03-22T06:47:55;12.50;93.70
7970;DHT22;4030;52.362;9.206;2024-03-22T06:50:21;12.50;93.70
7970;DHT22;4030;52.362;9.206;2024-03-22T06:52:53;12.50;93.70
7970;DHT22;4030;52.362;9.206;2024-03-22T06:55:20;12.50;93.80
7970;DHT22;4030;52.362;9.206;2024-03-22T06:57:47;12.50;93.70
7970;DHT22;4030;52.362;9.206;2024-03-22T07:00:13;12.60;93.70
7970;DHT22;4030;52.362;9.206;2024-03-22T07:02:40;12.60;93.70
7970;DHT22;4030;52.362;9.206;2024-03-22T07:05:09;12.60;93.60
7970;DHT22;4030;52.362;9.206;2024-03-22T07:07:36;12.60;93.70
7970;DHT22;4030;52.362;9.206;2024-03-22T07:10:03;12.70;93.80
7970;DHT22;4030;52.362;9.206;2024-03-22T07:12:31;12.70;93.70
7970;DHT22;4030;52.362;9.206;2024-03-22T07:14:58;12.70;93.70
7970;DHT22;4030;52.362;9.206;2024-03-22T07:17:25;12.70;93.70
7970;DHT22;4030;52.362;9.206;2024-03-22T07:19:51;12.70;93.70
7970;DHT22;4030;52.362;9.206;2024-03-22T07:22:20;12.70;93.70
7970;DHT22;4030;52.362;9.206;2024-03-22T07:24:46;12.80;94.10
7970;DHT22;4030;52.362;9.206;2024-03-22T07:27:16;12.80;93.80
7970;DHT22;4030;52.362;9.206;2024-03-22T07:29:42;12.80;93.70
7970;DHT22;4030;52.362;9.206;2024-03-22T07:32:08;12.90;93.80
7970;DHT22;4030;52.362;9.206;2024-03-22T07:34:33;12.90;93.80
7970;DHT22;4030;52.362;9.206;2024-03-22T07:36:59;12.90;93.80
7970;DHT22;4030;52.362;9.206;2024-03-22T07:39:25;12.90;93.80
7970;DHT22;4030;52.362;9.206;2024-03-22T07:41:51;12.90;93.80
7970;DHT22;4030;52.362;9.206;2024-03-22T07:44:17;12.90;94.20
7970;DHT22;4030;52.362;9.206;2024-03-22T07:46:43;13.00;93.80
7970;DHT22;4030;52.362;9.206;2024-03-22T07:49:10;13.00;93.80
7970;DHT22;4030;52.362;9.206;2024-03-22T07:51:36;13.00;93.90
7970;DHT22;4030;52.362;9.206;2024-03-22T07:54:02;13.00;93.90
7970;DHT22;4030;52.362;9.206;2024-03-22T07:56:28;13.00;93.90
7970;DHT22;4030;52.362;9.206;2024-03-22T07:58:53;13.00;93.90
7970;DHT22;4030;52.362;9.206;2024-03-22T08:01:19;13.10;94.00
7970;DHT22;4030;52.362;9.206;2024-03-22T08:03:45;13.10;94.00
7970;DHT22;4030;52.362;9.206;2024-03-22T08:06:10;13.10;93.90
7970;DHT22;4030;52.362;9.206;2024-03-22T08:08:36;13.10;93.90
7970;DHT22;4030;52.362;9.206;2024-03-22T08:11:02;13.20;93.90
7970;DHT22;4030;52.362;9.206;2024-03-22T08:13:27;13.10;93.90
7970;DHT22;4030;52.362;9.206;2024-03-22T08:15:53;13.20;93.90
7970;DHT22;4030;52.362;9.206;2024-03-22T08:18:19;13.30;94.00
7970;DHT22;4030;52.362;9.206;2024-03-22T08:20:45;13.30;93.90
7970;DHT22;4030;52.362;9.206;2024-03-22T08:23:10;13.30;93.90
7970;DHT22;4030;52.362;9.206;2024-03-22T08:25:36;13.40;93.90
7970;DHT22;4030;52.362;9.206;2024-03-22T08:28:02;13.40;93.90
7970;DHT22;4030;52.362;9.206;2024-03-22T08:30:28;13.40;93.90
7970;DHT22;4030;52.362;9.206;2024-03-22T08:32:53;13.50;94.00
7970;DHT22;4030;52.362;9.206;2024-03-22T08:35:19;13.50;94.00
7970;DHT22;4030;52.362;9.206;2024-03-22T08:37:45;13.50;93.90
7970;DHT22;4030;52.362;9.206;2024-03-22T08:40:11;13.50;94.00
7970;DHT22;4030;52.362;9.206;2024-03-22T08:42:39;13.50;94.00
7970;DHT22;4030;52.362;9.206;2024-03-22T08:45:05;13.50;93.90
7970;DHT22;4030;52.362;9.206;2024-03-22T08:47:31;13.50;93.90
7970;DHT22;4030;52.362;9.206;2024-03-22T08:49:59;13.50;93.90
7970;DHT22;4030;52.362;9.206;2024-03-22T08:52:25;13.60;93.90
7970;DHT22;4030;52.362;9.206;2024-03-22T08:54:54;13.60;93.90
7970;DHT22;4030;52.362;9.206;2024-03-22T08:57:19;13.60;93.90
7970;DHT22;4030;52.362;9.206;2024-03-22T08:59:45;13.70;93.90
7970;DHT22;4030;52.362;9.206;2024-03-22T09:02:11;13.70;93.90
7970;DHT22;4030;52.362;9.206;2024-03-22T09:04:38;13.70;93.90
7970;DHT22;4030;52.362;9.206;2024-03-22T09:07:03;13.70;93.80
7970;DHT22;4030;52.362;9.206;2024-03-22T09:09:29;13.80;93.80
7970;DHT22;4030;52.362;9.206;2024-03-22T09:11:55;13.80;93.80
7970;DHT22;4030;52.362;9.206;2024-03-22T09:14:20;13.80;93.80
7970;DHT22;4030;52.362;9.206;2024-03-22T09:16:46;13.80;93.70
7970;DHT22;4030;52.362;9.206;2024-03-22T09:19:12;13.80;93.70
7970;DHT22;4030;52.362;9.206;2024-03-22T09:21:37;13.80;93.70
7970;DHT22;4030;52.362;9.206;2024-03-22T09:24:03;13.80;93.70
7970;DHT22;4030;52.362;9.206;2024-03-22T09:26:29;13.90;93.70
7970;DHT22;4030;52.362;9.206;2024-03-22T09:28:55;13.90;93.70
7970;DHT22;4030;52.362;9.206;2024-03-22T09:31:21;13.90;93.60
7970;DHT22;4030;52.362;9.206;2024-03-22T09:33:46;13.90;93.60
7970;DHT22;4030;52.362;9.206;2024-03-22T09:36:12;13.90;93.60
7970;DHT22;4030;52.362;9.206;2024-03-22T09:38:38;13.90;93.50
7970;DHT22;4030;52.362;9.206;2024-03-22T09:41:04;14.00;93.50
7970;DHT22;4030;52.362;9.206;2024-03-22T09:43:30;14.00;93.50
7970;DHT22;4030;52.362;9.206;2024-03-22T09:45:57;14.10;93.40
7970;DHT22;4030;52.362;9.206;2024-03-22T09:48:23;14.10;93.40
7970;DHT22;4030;52.362;9.206;2024-03-22T09:50:49;14.10;93.40
7970;DHT22;4030;52.362;9.206;2024-03-22T09:53:19;14.20;93.40
7970;DHT22;4030;52.362;9.206;2024-03-22T09:55:47;14.20;93.30
7970;DHT22;4030;52.362;9.206;2024-03-22T09:58:13;14.30;93.30
7970;DHT22;4030;52.362;9.206;2024-03-22T10:00:39;14.30;93.20
7970;DHT22;4030;52.362;9.206;2024-03-22T10:03:06;14.40;93.20
7970;DHT22;4030;52.362;9.206;2024-03-22T10:05:33;14.40;93.10
7970;DHT22;4030;52.362;9.206;2024-03-22T10:07:59;14.50;93.10
7970;DHT22;4030;52.362;9.206;2024-03-22T10:10:25;14.50;93.10
7970;DHT22;4030;52.362;9.206;2024-03-22T10:12:51;14.50;93.00
7970;DHT22;4030;52.362;9.206;2024-03-22T10:15:18;14.50;93.00
7970;DHT22;4030;52.362;9.206;2024-03-22T10:17:45;14.50;92.90
7970;DHT22;4030;52.362;9.206;2024-03-22T10:20:13;14.60;92.90
7970;DHT22;4030;52.362;9.206;2024-03-22T10:22:50;14.60;92.90
7970;DHT22;4030;52.362;9.206;2024-03-22T10:25:21;14.70;92.80
7970;DHT22;4030;52.362;9.206;2024-03-22T10:27:47;14.70;92.80
7970;DHT22;4030;52.362;9.206;2024-03-22T10:30:15;14.80;92.80
7970;DHT22;4030;52.362;9.206;2024-03-22T10:32:42;14.80;92.80
7970;DHT22;4030;52.362;9.206;2024-03-22T10:35:11;14.90;92.80
7970;DHT22;4030;52.362;9.206;2024-03-22T10:37:38;14.90;92.70
7970;DHT22;4030;52.362;9.206;2024-03-22T10:40:05;15.00;92.60
7970;DHT22;4030;52.362;9.206;2024-03-22T10:42:35;15.10;92.60
7970;DHT22;4030;52.362;9.206;2024-03-22T10:45:02;15.20;92.60
7970;DHT22;4030;52.362;9.206;2024-03-22T10:47:30;15.20;92.50
7970;DHT22;4030;52.362;9.206;2024-03-22T10:50:08;15.30;92.50
7970;DHT22;4030;52.362;9.206;2024-03-22T10:52:51;15.40;92.40
7970;DHT22;4030;52.362;9.206;2024-03-22T10:55:28;15.50;92.30
7970;DHT22;4030;52.362;9.206;2024-03-22T10:57:58;15.60;92.20
7970;DHT22;4030;52.362;9.206;2024-03-22T11:00:32;15.70;92.20
7970;DHT22;4030;52.362;9.206;2024-03-22T11:02:59;15.70;92.00
7970;DHT22;4030;52.362;9.206;2024-03-22T11:05:26;15.70;91.90
7970;DHT22;4030;52.362;9.206;2024-03-22T11:08:03;15.70;91.90
7970;DHT22;4030;52.362;9.206;2024-03-22T11:10:35;15.70;91.80
7970;DHT22;4030;52.362;9.206;2024-03-22T11:13:05;15.70;91.80
7970;DHT22;4030;52.362;9.206;2024-03-22T11:15:33;15.70;91.70
7970;DHT22;4030;52.362;9.206;2024-03-22T11:17:59;15.60;92.10
7970;DHT22;4030;52.362;9.206;2024-03-22T11:20:26;15.60;91.70
7970;DHT22;4030;52.362;9.206;2024-03-22T11:22:52;15.50;91.80
7970;DHT22;4030;52.362;9.206;2024-03-22T11:25:18;15.50;91.70
7970;DHT22;4030;52.362;9.206;2024-03-22T11:27:45;15.50;91.70
7970;DHT22;4030;52.362;9.206;2024-03-22T11:30:17;15.40;91.70
7970;DHT22;4030;52.362;9.206;2024-03-22T11:32:43;15.40;91.80
7970;DHT22;4030;52.362;9.206;2024-03-22T11:35:13;15.30;91.70
7970;DHT22;4030;52.362;9.206;2024-03-22T11:37:39;15.30;91.80
7970;DHT22;4030;52.362;9.206;2024-03-22T11:40:09;15.30;91.80
7970;DHT22;4030;52.362;9.206;2024-03-22T11:42:39;15.20;91.80
7970;DHT22;4030;52.362;9.206;2024-03-22T11:45:05;15.20;91.90
7970;DHT22;4030;52.362;9.206;2024-03-22T11:47:34;15.20;91.90
7970;DHT22;4030;52.362;9.206;2024-03-22T11:50:01;15.20;91.90
7970;DHT22;4030;52.362;9.206;2024-03-22T11:52:26;15.10;91.90
7970;DHT22;4030;52.362;9.206;2024-03-22T11:54:52;15.10;91.90
7970;DHT22;4030;52.362;9.206;2024-03-22T11:57:20;15.10;91.90
7970;DHT22;4030;52.362;9.206;2024-03-22T11:59:46;15.00;91.90
7970;DHT22;4030;52.362;9.206;2024-03-22T12:02:11;15.00;91.90
7970;DHT22;4030;52.362;9.206;2024-03-22T12:04:46;15.00;92.00
7970;DHT22;4030;52.362;9.206;2024-03-22T12:07:16;15.00;92.00
7970;DHT22;4030;52.362;9.206;2024-03-22T12:09:43;14.90;92.00
7970;DHT22;4030;52.362;9.206;2024-03-22T12:12:11;14.90;92.00
7970;DHT22;4030;52.362;9.206;2024-03-22T12:14:38;14.90;92.00
7970;DHT22;4030;52.362;9.206;2024-03-22T12:17:05;14.80;92.00
7970;DHT22;4030;52.362;9.206;2024-03-22T12:19:32;14.80;92.10
7970;DHT22;4030;52.362;9.206;2024-03-22T12:21:58;14.80;92.10
7970;DHT22;4030;52.362;9.206;2024-03-22T12:24:24;14.80;92.10
7970;DHT22;4030;52.362;9.206;2024-03-22T12:26:50;14.70;92.10
7970;DHT22;4030;52.362;9.206;2024-03-22T12:29:16;14.70;92.20
7970;DHT22;4030;52.362;9.206;2024-03-22T12:31:42;14.70;92.20
7970;DHT22;4030;52.362;9.206;2024-03-22T12:34:09;14.60;92.20
7970;DHT22;4030;52.362;9.206;2024-03-22T12:36:35;14.60;92.30
7970;DHT22;4030;52.362;9.206;2024-03-22T12:39:00;14.60;92.30
7970;DHT22;4030;52.362;9.206;2024-03-22T12:41:27;14.60;92.40
7970;DHT22;4030;52.362;9.206;2024-03-22T12:43:54;14.60;92.40
7970;DHT22;4030;52.362;9.206;2024-03-22T12:46:20;14.60;92.40
7970;DHT22;4030;52.362;9.206;2024-03-22T12:48:46;14.50;92.40
7970;DHT22;4030;52.362;9.206;2024-03-22T12:51:11;14.50;92.50
7970;DHT22;4030;52.362;9.206;2024-03-22T12:53:37;14.50;92.60
7970;DHT22;4030;52.362;9.206;2024-03-22T12:56:03;14.40;92.60
7970;DHT22;4030;52.362;9.206;2024-03-22T12:58:30;14.40;92.60
7970;DHT22;4030;52.362;9.206;2024-03-22T13:00:57;14.40;92.70
7970;DHT22;4030;52.362;9.206;2024-03-22T13:03:23;14.40;92.80
7970;DHT22;4030;52.362;9.206;2024-03-22T13:05:49;14.30;92.80
7970;DHT22;4030;52.362;9.206;2024-03-22T13:08:15;14.30;92.80
7970;DHT22;4030;52.362;9.206;2024-03-22T13:10:40;14.30;92.90
7970;DHT22;4030;52.362;9.206;2024-03-22T13:13:09;14.30;92.90
7970;DHT22;4030;52.362;9.206;2024-03-22T13:15:35;14.20;92.90
7970;DHT22;4030;52.362;9.206;2024-03-22T13:18:03;14.20;93.40
7970;DHT22;4030;52.362;9.206;2024-03-22T13:20:29;14.20;93.00
7970;DHT22;4030;52.362;9.206;2024-03-22T13:22:55;14.20;93.00
7970;DHT22;4030;52.362;9.206;2024-03-22T13:25:21;14.20;93.00
7970;DHT22;4030;52.362;9.206;2024-03-22T13:27:47;14.20;93.10
7970;DHT22;4030;52.362;9.206;2024-03-22T13:30:14;14.20;93.10
7970;DHT22;4030;52.362;9.206;2024-03-22T13:32:40;14.20;93.10
7970;DHT22;4030;52.362;9.206;2024-03-22T13:35:06;14.20;93.20
7970;DHT22;4030;52.362;9.206;2024-03-22T13:37:32;14.20;93.10
7970;DHT22;4030;52.362;9.206;2024-03-22T13:39:58;14.20;93.20
7970;DHT22;4030;52.362;9.206;2024-03-22T13:42:25;14.20;93.20
7970;DHT22;4030;52.362;9.206;2024-03-22T13:44:51;14.20;93.20
7970;DHT22;4030;52.362;9.206;2024-03-22T13:47:17;14.10;93.20
7970;DHT22;4030;52.362;9.206;2024-03-22T13:49:43;14.20;93.30
7970;DHT22;4030;52.362;9.206;2024-03-22T13:52:10;14.20;93.30
7970;DHT22;4030;52.362;9.206;2024-03-22T13:54:36;14.20;93.30
7970;DHT22;4030;52.362;9.206;2024-03-22T13:57:02;14.10;93.30
7970;DHT22;4030;52.362;9.206;2024-03-22T13:59:28;14.10;93.30
7970;DHT22;4030;52.362;9.206;2024-03-22T14:01:54;14.10;93.30
7970;DHT22;4030;52.362;9.206;2024-03-22T14:04:22;14.10;93.40
7970;DHT22;4030;52.362;9.206;2024-03-22T14:06:48;14.10;93.40
7970;DHT22;4030;52.362;9.206;2024-03-22T14:09:14;14.00;93.50
7970;DHT22;4030;52.362;9.206;2024-03-22T14:11:41;14.00;93.50
7970;DHT22;4030;52.362;9.206;2024-03-22T14:14:09;14.00;93.60
7970;DHT22;4030;52.362;9.206;2024-03-22T14:16:37;14.00;93.60
7970;DHT22;4030;52.362;9.206;2024-03-22T14:19:03;14.00;93.70
7970;DHT22;4030;52.362;9.206;2024-03-22T14:21:29;14.00;93.80
7970;DHT22;4030;52.362;9.206;2024-03-22T14:23:55;13.90;93.80
7970;DHT22;4030;52.362;9.206;2024-03-22T14:26:20;13.90;93.80
7970;DHT22;4030;52.362;9.206;2024-03-22T14:28:46;13.90;93.90
7970;DHT22;4030;52.362;9.206;2024-03-22T14:31:13;13.90;94.00
7970;DHT22;4030;52.362;9.206;2024-03-22T14:33:39;13.90;94.00
7970;DHT22;4030;52.362;9.206;2024-03-22T14:36:06;13.90;94.10
7970;DHT22;4030;52.362;9.206;2024-03-22T14:38:33;13.90;94.10
7970;DHT22;4030;52.362;9.206;2024-03-22T14:40:59;13.90;94.10
7970;DHT22;4030;52.362;9.206;2024-03-22T14:43:25;13.80;94.10
7970;DHT22;4030;52.362;9.206;2024-03-22T14:45:55;13.80;94.20
7970;DHT22;4030;52.362;9.206;2024-03-22T14:48:21;13.80;94.20
7970;DHT22;4030;52.362;9.206;2024-03-22T14:50:47;13.80;94.30
7970;DHT22;4030;52.362;9.206;2024-03-22T14:53:14;13.80;94.40
7970;DHT22;4030;52.362;9.206;2024-03-22T14:56:01;13.70;94.30
7970;DHT22;4030;52.362;9.206;2024-03-22T14:58:34;13.70;94.40
7970;DHT22;4030;52.362;9.206;2024-03-22T15:01:01;13.70;94.40
7970;DHT22;4030;52.362;9.206;2024-03-22T15:03:28;13.70;94.40
7970;DHT22;4030;52.362;9.206;2024-03-22T15:05:56;13.70;94.40
7970;DHT22;4030;52.362;9.206;2024-03-22T15:08:23;13.70;94.50
7970;DHT22;4030;52.362;9.206;2024-03-22T15:10:49;13.70;94.50
7970;DHT22;4030;52.362;9.206;2024-03-22T15:13:16;13.70;94.50
7970;DHT22;4030;52.362;9.206;2024-03-22T15:15:53;13.70;94.60
7970;DHT22;4030;52.362;9.206;2024-03-22T15:18:19;13.60;94.60
7970;DHT22;4030;52.362;9.206;2024-03-22T15:20:46;13.60;94.70
7970;DHT22;4030;52.362;9.206;2024-03-22T15:23:11;13.60;94.70
7970;DHT22;4030;52.362;9.206;2024-03-22T15:25:37;13.60;94.80
7970;DHT22;4030;52.362;9.206;2024-03-22T15:28:03;13.60;94.80
7970;DHT22;4030;52.362;9.206;2024-03-22T15:30:29;13.60;94.90
7970;DHT22;4030;52.362;9.206;2024-03-22T15:32:54;13.60;94.90
7970;DHT22;4030;52.362;9.206;2024-03-22T15:35:20;13.60;95.00
7970;DHT22;4030;52.362;9.206;2024-03-22T15:37:46;13.50;94.90
7970;DHT22;4030;52.362;9.206;2024-03-22T15:40:13;13.50;95.00
7970;DHT22;4030;52.362;9.206;2024-03-22T15:42:39;14.80;95.70
7970;DHT22;4030;52.362;9.206;2024-03-22T15:45:06;13.50;95.00
7970;DHT22;4030;52.362;9.206;2024-03-22T15:47:32;13.50;95.10
7970;DHT22;4030;52.362;9.206;2024-03-22T15:49:58;13.50;95.10
7970;DHT22;4030;52.362;9.206;2024-03-22T15:52:24;13.50;95.20
7970;DHT22;4030;52.362;9.206;2024-03-22T15:54:50;13.40;95.20
7970;DHT22;4030;52.362;9.206;2024-03-22T15:57:16;13.40;95.20
7970;DHT22;4030;52.362;9.206;2024-03-22T15:59:42;13.50;95.30